Time;durP1;ratioP1;P1;durP2;ratioP2;P2;SDS_P1;SDS_P2;PMS_P1;PMS_P2;Temp;Humidity;BMP_temperature;BMP_pressure;BME280_temperature;BME280_humidity;BME280_pressure;Samples;Min_cycle;Max_cycle;Signal;HPM_P1;HPM_P2
2023/08/05 00:01:09;;;;;;;9.23;5.70;;;;;;;21.11;74.96;99475.38;5015659;28;20075;-45
2023/08/05 00:03:35;;;;;;;8.50;4.93;;;;;;;21.09;75.15;99474.66;5024123;28;20065;-46
2023/08/05 00:06:01;;;;;;;16.73;5.72;;;;;;;21.03;74.89;99469.88;5046592;28;20097;-49
2023/08/05 00:08:27;;;;;;;12.05;5.90;;;;;;;21.05;75.26;99478.50;5048837;28;20033;-46
2023/08/05 00:10:53;;;;;;;10.77;5.68;;;;;;;21.02;75.71;99480.56;5048565;28;20492;-44
2023/08/05 00:13:19;;;;;;;10.30;5.60;;;;;;;20.99;76.14;99481.63;5037302;28;20088;-45
2023/08/05 00:15:45;;;;;;;10.57;5.53;;;;;;;20.95;76.10;99476.72;5028247;28;20042;-47
2023/08/05 00:18:11;;;;;;;12.98;5.72;;;;;;;20.94;76.19;99477.69;5029837;28;20044;-46
2023/08/05 00:20:37;;;;;;;6.38;4.97;;;;;;;20.93;75.99;99487.44;5044235;28;20114;-47
2023/08/05 00:23:03;;;;;;;8.02;5.25;;;;;;;20.86;75.71;99472.19;5020557;28;20038;-47
2023/08/05 00:25:29;;;;;;;9.98;5.60;;;;;;;20.89;75.73;99485.13;5028719;28;20057;-49
2023/08/05 00:27:54;;;;;;;8.02;5.85;;;;;;;20.88;75.73;99494.06;5035324;28;20410;-50
2023/08/05 00:30:20;;;;;;;10.63;5.60;;;;;;;20.84;75.63;99482.03;5018041;28;20558;-47
2023/08/05 00:32:46;;;;;;;8.07;5.15;;;;;;;20.73;76.07;99475.78;5031534;28;20036;-44
2023/08/05 00:35:12;;;;;;;9.18;5.40;;;;;;;20.60;75.97;99458.41;5011099;28;20038;-44
2023/08/05 00:37:38;;;;;;;10.52;5.80;;;;;;;20.77;75.88;99491.44;5023966;28;20544;-46
2023/08/05 00:40:05;;;;;;;8.63;5.75;;;;;;;20.64;76.19;99484.47;5021539;28;20037;-45
2023/08/05 00:42:31;;;;;;;10.05;6.32;;;;;;;20.73;76.22;99492.63;5027216;28;20089;-47
2023/08/05 00:44:57;;;;;;;6.03;5.10;;;;;;;20.75;76.65;99496.81;5043360;28;20053;-50
2023/08/05 00:47:23;;;;;;;12.60;6.03;;;;;;;20.73;76.68;99496.94;5007774;28;20762;-50
2023/08/05 00:49:50;;;;;;;9.63;6.07;;;;;;;20.73;76.82;99491.66;5024904;28;20160;-46
2023/08/05 00:52:17;;;;;;;8.32;5.20;;;;;;;20.60;76.96;99476.91;5007378;28;20081;-49
2023/08/05 00:54:43;;;;;;;8.48;5.82;;;;;;;20.66;76.74;99487.00;5025912;28;20131;-48
2023/08/05 00:57:11;;;;;;;10.60;5.80;;;;;;;20.68;76.85;99496.47;5009893;28;20045;-47
2023/08/05 00:59:38;;;;;;;;;;;;;;;20.66;77.11;99490.47;5028637;28;20417;-47
2023/08/05 01:02:05;;;;;;;7.38;5.38;;;;;;;20.61;77.21;99489.16;4997967;28;19917;-45
2023/08/05 01:04:33;;;;;;;9.57;6.28;;;;;;;20.59;77.24;99504.28;5031926;28;20049;-48
2023/08/05 01:06:59;;;;;;;11.70;5.43;;;;;;;20.50;77.22;99490.00;5033295;28;20041;-44
2023/08/05 01:09:25;;;;;;;8.23;5.38;;;;;;;20.53;77.05;99492.38;5051956;28;20098;-45
2023/08/05 01:11:51;;;;;;;11.10;5.60;;;;;;;20.52;77.02;99500.41;5034235;28;20079;-50
2023/08/05 01:14:17;;;;;;;10.93;5.63;;;;;;;20.28;77.03;99458.25;5034542;28;20057;-44
2023/08/05 01:16:44;;;;;;;7.13;5.35;;;;;;;20.51;76.84;99506.69;5014334;28;20488;-47
2023/08/05 01:19:20;;;;;;;10.68;5.93;;;;;;;20.49;76.88;99501.50;5031562;28;20073;-46
2023/08/05 01:22:08;;;;;;;10.48;5.30;;;;;;;20.47;77.14;99500.78;5031293;28;20141;-48
2023/08/05 01:24:48;;;;;;;6.10;5.50;;;;;;;20.47;77.11;99503.41;5030215;28;20037;-44
2023/08/05 01:27:14;;;;;;;10.82;5.80;;;;;;;20.43;76.75;99496.69;5030381;28;20525;-46
2023/08/05 01:29:40;;;;;;;6.57;5.07;;;;;;;20.26;77.00;99481.28;5022305;28;20046;-47
2023/08/05 01:32:07;;;;;;;7.28;4.88;;;;;;;20.42;77.06;99512.66;5018634;28;20037;-46
2023/08/05 01:34:33;;;;;;;8.63;5.65;;;;;;;20.42;77.27;99516.13;5007914;28;20045;-47
2023/08/05 01:36:59;;;;;;;7.45;5.15;;;;;;;20.42;77.35;99505.56;5078393;28;20037;-46
2023/08/05 01:39:25;;;;;;;8.82;5.38;;;;;;;20.42;77.43;99507.38;5029219;28;20524;-47
2023/08/05 01:41:51;;;;;;;8.57;5.00;;;;;;;20.44;77.19;99516.88;5029269;28;20037;-48
2023/08/05 01:44:16;;;;;;;7.72;5.22;;;;;;;20.43;77.10;99509.06;5029225;28;20524;-47
2023/08/05 01:46:42;;;;;;;8.85;5.35;;;;;;;20.42;77.12;99510.84;5029247;28;20052;-46
2023/08/05 01:49:08;;;;;;;9.23;5.22;;;;;;;20.42;77.10;99508.22;5036406;28;20048;-45
2023/08/05 01:51:34;;;;;;;12.13;5.57;;;;;;;20.42;77.30;99513.50;4996409;28;20049;-50
2023/08/05 01:54:00;;;;;;;8.55;5.38;;;;;;;20.42;77.26;99515.31;5033215;28;20127;-46
2023/08/05 01:56:26;;;;;;;11.02;6.00;;;;;;;20.41;77.07;99524.22;5021293;28;20069;-48
2023/08/05 01:58:51;;;;;;;14.10;5.40;;;;;;;20.40;76.94;99525.16;5042111;28;20052;-45
2023/08/05 02:01:17;;;;;;;10.50;5.90;;;;;;;20.06;77.02;99468.78;5048354;28;20421;-47
2023/08/05 02:03:43;;;;;;;9.30;5.55;;;;;;;20.34;76.81;99518.53;5030288;28;20057;-47
2023/08/05 02:06:09;;;;;;;10.70;6.40;;;;;;;20.35;76.95;99522.88;5014373;28;20045;-47
2023/08/05 02:08:35;;;;;;;10.77;5.78;;;;;;;20.35;77.03;99528.16;5011282;28;20033;-45
2023/08/05 02:11:03;;;;;;;9.07;5.60;;;;;;;20.36;76.83;99531.66;5023507;28;20041;-46
2023/08/05 02:13:30;;;;;;;;;;;;;;;20.36;76.89;99531.66;5030487;28;20042;-46
2023/08/05 02:15:56;;;;;;;7.60;5.25;;;;;;;20.31;76.87;99537.25;5046672;28;19917;-49
2023/08/05 02:18:41;;;;;;;9.25;5.40;;;;;;;20.28;76.89;99532.19;5030728;28;20532;-47
2023/08/05 02:21:07;;;;;;;10.02;5.93;;;;;;;20.22;77.09;99519.44;5030093;28;20131;-51
2023/08/05 02:23:33;;;;;;;10.07;5.45;;;;;;;20.27;76.95;99533.97;5042752;28;20042;-50
2023/08/05 02:26:01;;;;;;;7.07;5.50;;;;;;;20.16;76.72;99520.75;5043454;28;20045;-48
2023/08/05 02:28:27;;;;;;;11.82;5.65;;;;;;;20.35;76.94;99549.28;5012594;28;20092;-46
2023/08/05 02:30:53;;;;;;;7.15;5.68;;;;;;;20.38;76.81;99550.84;5030925;28;20824;-50
2023/08/05 02:33:19;;;;;;;10.05;5.60;;;;;;;20.35;76.88;99551.94;5029020;28;20047;-49
2023/08/05 02:35:46;;;;;;;7.13;4.93;;;;;;;20.37;76.66;99554.44;5043678;28;20041;-47
2023/08/05 02:38:12;;;;;;;8.63;5.30;;;;;;;20.38;76.65;99562.25;5046090;28;20052;-46
2023/08/05 02:40:38;;;;;;;8.95;5.75;;;;;;;20.23;76.50;99531.69;5043924;28;20041;-50
2023/08/05 02:43:04;;;;;;;6.97;5.63;;;;;;;20.43;76.52;99567.16;5030147;28;20128;-49
2023/08/05 02:45:30;;;;;;;9.43;5.32;;;;;;;20.44;76.27;99561.78;5030578;28;20493;-48
2023/08/05 02:47:56;;;;;;;9.50;5.68;;;;;;;20.47;76.10;99568.59;5028172;28;20041;-46
2023/08/05 02:50:22;;;;;;;8.88;5.38;;;;;;;20.50;75.99;99582.44;5019535;28;20124;-45
2023/08/05 02:52:48;;;;;;;8.70;5.55;;;;;;;20.39;75.77;99558.66;5010080;28;20062;-46
2023/08/05 02:55:14;;;;;;;11.48;5.35;;;;;;;20.57;75.74;99583.63;5016603;28;20049;-47
2023/08/05 02:57:40;;;;;;;9.52;5.30;;;;;;;20.60;75.42;99580.78;5036652;28;20044;-49
2023/08/05 03:00:06;;;;;;;11.02;5.68;;;;;;;20.66;75.57;99575.00;5019472;28;20037;-48
2023/08/05 03:02:32;;;;;;;8.57;5.65;;;;;;;20.48;75.38;99547.38;5028739;28;20076;-47
2023/08/05 03:04:58;;;;;;;8.60;5.22;;;;;;;20.71;75.23;99587.88;5023184;28;20077;-47
2023/08/05 03:07:24;;;;;;;9.73;4.82;;;;;;;20.72;75.24;99584.28;5030073;28;20045;-47
2023/08/05 03:09:50;;;;;;;6.43;4.93;;;;;;;20.76;74.74;99587.50;5014608;28;20037;-46
2023/08/05 03:12:17;;;;;;;6.00;4.53;;;;;;;20.78;74.52;99591.69;5028515;28;20037;-46
2023/08/05 03:14:43;;;;;;;6.07;4.05;;;;;;;20.79;74.25;99588.09;5025694;28;20541;-49
2023/08/05 03:17:10;;;;;;;6.63;4.60;;;;;;;20.56;73.81;99552.06;4992999;28;20149;-51
2023/08/05 03:19:37;;;;;;;11.68;4.68;;;;;;;20.85;73.73;99595.56;5025322;28;20046;-49
2023/08/05 03:22:03;;;;;;;6.35;4.43;;;;;;;20.90;73.46;99595.19;5041620;28;20041;-46
2023/08/05 03:24:30;;;;;;;8.77;4.60;;;;;;;20.95;73.39;99600.97;5043195;28;20029;-46
2023/08/05 03:26:56;;;;;;;7.22;4.50;;;;;;;20.98;73.24;99600.72;5021183;28;20061;-44
2023/08/05 03:29:23;;;;;;;5.90;3.63;;;;;;;21.02;73.03;99603.00;5039797;28;20046;-44
2023/08/05 03:31:50;;;;;;;9.60;4.07;;;;;;;21.08;72.77;99601.69;5025189;28;20059;-45
2023/08/05 03:34:19;;;;;;;;;;;;;;;21.09;72.24;99604.19;5012724;28;20045;-44
2023/08/05 03:36:45;;;;;;;5.55;3.50;;;;;;;21.10;72.30;99605.03;5059911;28;20019;-45
2023/08/05 03:39:11;;;;;;;7.55;3.60;;;;;;;21.13;71.78;99610.09;5026810;28;20128;-46
2023/08/05 03:41:37;;;;;;;4.20;3.38;;;;;;;21.17;71.46;99613.38;5019184;28;20137;-49
2023/08/05 03:44:03;;;;;;;6.28;3.80;;;;;;;21.04;71.02;99585.19;5008057;28;20046;-46
2023/08/05 03:46:29;;;;;;;5.70;3.83;;;;;;;21.26;70.96;99607.34;5025987;28;20041;-48
2023/08/05 03:48:56;;;;;;;6.53;3.88;;;;;;;21.14;70.67;99594.13;5026119;28;20128;-50
2023/08/05 03:51:21;;;;;;;8.65;3.92;;;;;;;21.36;70.57;99625.00;5013923;28;20155;-47
2023/08/05 03:53:47;;;;;;;5.72;3.22;;;;;;;21.41;70.70;99621.97;5042173;28;20053;-44
2023/08/05 03:56:14;;;;;;;7.25;3.55;;;;;;;21.45;70.84;99620.78;5027294;28;20037;-48
2023/08/05 03:58:41;;;;;;;6.57;3.38;;;;;;;21.49;70.60;99624.88;5036442;28;20041;-46
2023/08/05 04:01:08;;;;;;;5.88;3.67;;;;;;;21.51;70.43;99620.31;5010920;28;20056;-46
2023/08/05 04:03:36;;;;;;;7.28;3.97;;;;;;;21.54;70.58;99622.69;5008421;28;20038;-49
2023/08/05 04:06:02;;;;;;;9.38;4.15;;;;;;;21.59;70.38;99625.81;5033049;28;20425;-45
2023/08/05 04:08:28;;;;;;;5.97;3.35;;;;;;;21.68;70.21;99637.44;5009181;28;20468;-44
2023/08/05 04:10:54;;;;;;;5.90;3.45;;;;;;;21.73;69.93;99643.22;5053881;28;20128;-47
2023/08/05 04:13:23;;;;;;;7.20;3.40;;;;;;;21.78;69.71;99639.22;5055009;28;20115;-47
2023/08/05 04:15:53;;;;;;;;;;;;;;;21.81;68.96;99646.09;5045902;28;20090;-45
2023/08/05 04:18:19;;;;;;;5.05;3.33;;;;;;;21.63;68.39;99614.00;5030967;28;20384;-51
2023/08/05 04:20:46;;;;;;;6.22;3.13;;;;;;;21.81;68.10;99641.63;5029324;28;20144;-50
2023/08/05 04:23:15;;;;;;;6.25;3.45;;;;;;;21.89;68.13;99649.78;4993500;28;20088;-46
2023/08/05 04:25:45;;;;;;;9.55;3.15;;;;;;;21.90;67.70;99646.19;5011679;28;20045;-47
2023/08/05 04:28:11;;;;;;;8.75;3.33;;;;;;;21.98;67.67;99648.25;5013440;28;20041;-47
2023/08/05 04:30:37;;;;;;;7.60;3.70;;;;;;;22.04;67.59;99649.53;5043085;28;20041;-46
2023/08/05 04:33:03;;;;;;;5.88;3.10;;;;;;;21.97;67.04;99622.72;5027533;28;20099;-46
2023/08/05 04:35:29;;;;;;;6.40;3.22;;;;;;;22.15;67.02;99645.03;5029688;28;20041;-47
2023/08/05 04:37:55;;;;;;;5.22;3.20;;;;;;;22.21;66.78;99644.53;5033753;28;20071;-45
2023/08/05 04:40:21;;;;;;;6.68;3.30;;;;;;;22.27;66.52;99636.06;5061857;28;20082;-46
2023/08/05 04:42:47;;;;;;;4.03;2.65;;;;;;;22.36;66.27;99650.34;5014892;28;20076;-46
2023/08/05 04:45:13;;;;;;;5.80;2.97;;;;;;;22.44;66.02;99650.56;5019034;28;20057;-45
2023/08/05 04:47:40;;;;;;;6.90;2.85;;;;;;;22.49;65.63;99640.41;5054608;28;20148;-49
2023/08/05 04:50:06;;;;;;;5.10;2.72;;;;;;;22.55;65.24;99649.66;5017328;28;20091;-46
2023/08/05 04:52:32;;;;;;;8.45;3.00;;;;;;;22.47;64.68;99628.25;5029125;28;20078;-46
2023/08/05 04:55:07;;;;;;;9.55;2.90;;;;;;;22.51;64.36;99619.91;5029936;28;20049;-47
2023/08/05 04:57:33;;;;;;;5.38;2.53;;;;;;;22.74;64.03;99653.31;5029282;28;20045;-48
2023/08/05 04:59:59;;;;;;;7.07;3.05;;;;;;;22.68;63.90;99632.59;5039373;28;20064;-45
2023/08/05 05:02:25;;;;;;;9.00;2.95;;;;;;;22.89;63.96;99645.00;5031497;28;20046;-47
2023/08/05 05:04:51;;;;;;;6.53;2.85;;;;;;;22.99;63.87;99643.25;5050099;28;20057;-46
2023/08/05 05:07:18;;;;;;;4.63;2.72;;;;;;;22.96;63.39;99628.44;5043845;28;20064;-47
2023/08/05 05:09:44;;;;;;;7.88;2.88;;;;;;;23.17;63.17;99647.81;5015809;28;20049;-48
2023/08/05 05:12:10;;;;;;;8.15;2.95;;;;;;;23.27;62.92;99655.81;5029865;28;20063;-48
2023/08/05 05:14:43;;;;;;;5.97;2.53;;;;;;;23.34;62.40;99653.47;5030455;28;20128;-47
2023/08/05 05:17:09;;;;;;;5.25;2.35;;;;;;;23.41;62.06;99658.06;5032727;28;20548;-50
2023/08/05 05:19:35;;;;;;;6.10;2.75;;;;;;;23.52;61.99;99662.47;5019061;28;20143;-47
2023/08/05 05:22:01;;;;;;;4.30;2.20;;;;;;;23.60;61.29;99662.66;5019401;28;20421;-46
2023/08/05 05:24:29;;;;;;;4.25;2.30;;;;;;;23.66;60.75;99658.63;5030546;28;20044;-47
2023/08/05 05:26:57;;;;;;;3.88;2.22;;;;;;;23.76;60.52;99665.59;5015451;28;20048;-48
2023/08/05 05:29:23;;;;;;;4.85;2.20;;;;;;;23.85;59.71;99674.56;5023543;28;20569;-47
2023/08/05 05:31:49;;;;;;;4.85;2.08;;;;;;;23.91;59.19;99669.56;5024069;28;20152;-49
2023/08/05 05:34:15;;;;;;;3.00;1.95;;;;;;;23.97;58.97;99671.66;5022248;28;20073;-48
2023/08/05 05:36:41;;;;;;;4.43;2.22;;;;;;;24.11;58.87;99672.22;5028410;28;20518;-49
2023/08/05 05:39:06;;;;;;;2.83;2.00;;;;;;;24.17;58.07;99677.00;5029718;28;20052;-45
2023/08/05 05:41:34;;;;;;;3.55;1.98;;;;;;;24.29;57.77;99689.19;5031230;28;20049;-45
2023/08/05 05:44:03;;;;;;;2.55;2.00;;;;;;;24.22;57.18;99661.50;5029770;28;20524;-47
2023/08/05 05:46:33;;;;;;;4.55;1.65;;;;;;;24.41;56.54;99682.75;5013638;28;20049;-49
2023/08/05 05:48:59;;;;;;;4.68;2.00;;;;;;;24.51;56.46;99688.91;5042435;28;20037;-47
2023/08/05 05:51:25;;;;;;;3.65;2.08;;;;;;;24.65;56.38;99695.63;5030039;28;20067;-49
2023/08/05 05:53:51;;;;;;;3.78;1.60;;;;;;;24.70;55.94;99691.56;5034752;28;20048;-49
2023/08/05 05:56:18;;;;;;;5.32;2.17;;;;;;;24.74;56.08;99684.97;5036118;28;20158;-46
2023/08/05 05:58:43;;;;;;;8.68;2.38;;;;;;;24.94;56.05;99690.28;5005577;28;20188;-49
2023/08/05 06:01:09;;;;;;;5.50;1.83;;;;;;;25.04;55.70;99691.91;5010671;28;20581;-44
2023/08/05 06:03:37;;;;;;;8.50;2.13;;;;;;;25.06;54.91;99675.81;5009414;28;20099;-46
2023/08/05 06:06:03;;;;;;;4.00;1.60;;;;;;;25.25;54.14;99697.88;5042165;28;20054;-48
2023/08/05 06:08:29;;;;;;;3.97;1.73;;;;;;;25.20;53.40;99691.31;5042890;28;20037;-46
2023/08/05 06:10:56;;;;;;;2.15;1.73;;;;;;;25.19;53.01;99693.13;5030594;28;20059;-48
2023/08/05 06:13:22;;;;;;;3.92;1.73;;;;;;;25.30;53.04;99698.28;5030888;28;20038;-45
2023/08/05 06:15:48;;;;;;;3.85;1.55;;;;;;;25.25;52.78;99671.25;5030174;28;20037;-47
2023/08/05 06:18:13;;;;;;;7.10;1.80;;;;;;;25.48;52.84;99685.03;5030505;28;20128;-48
2023/08/05 06:20:40;;;;;;;5.07;1.77;;;;;;;25.69;52.14;99696.31;5031682;28;20032;-48
2023/08/05 06:23:06;;;;;;;5.35;1.90;;;;;;;25.85;52.12;99694.81;5029472;28;20079;-49
2023/08/05 06:25:33;;;;;;;4.38;1.90;;;;;;;25.79;51.74;99672.28;5030356;28;20462;-45
2023/08/05 06:27:59;;;;;;;3.72;2.00;;;;;;;26.20;51.77;99702.00;5029431;28;20041;-46
2023/08/05 06:30:24;;;;;;;4.35;1.98;;;;;;;26.33;51.01;99692.66;5018498;28;21022;-44
2023/08/05 06:32:50;;;;;;;4.22;2.00;;;;;;;26.54;50.76;99690.53;5027985;28;20461;-46
2023/08/05 06:35:16;;;;;;;2.47;1.83;;;;;;;27.27;48.77;99688.38;5028953;28;20037;-47
2023/08/05 06:37:42;;;;;;;3.08;1.98;;;;;;;28.18;46.88;99668.03;5029411;28;20037;-46
2023/08/05 06:40:08;;;;;;;2.95;1.95;;;;;;;29.05;45.19;99696.78;5015719;28;20096;-45
2023/08/05 06:42:34;;;;;;;3.58;1.95;;;;;;;29.78;44.10;99699.22;5028644;28;20406;-45
2023/08/05 06:45:00;;;;;;;5.70;2.10;;;;;;;30.98;42.66;99701.25;5028597;28;20120;-49
2023/08/05 06:47:31;;;;;;;4.53;1.80;;;;;;;31.96;40.72;99663.31;5012466;28;20045;-46
2023/08/05 06:49:58;;;;;;;4.90;2.38;;;;;;;33.59;38.65;99703.44;5058719;28;20045;-45
2023/08/05 06:52:24;;;;;;;5.65;2.17;;;;;;;33.88;36.49;99693.38;5030155;28;20505;-46
2023/08/05 06:54:49;;;;;;;5.15;2.60;;;;;;;33.74;36.19;99680.91;5035705;28;20068;-48
2023/08/05 06:57:15;;;;;;;4.18;2.15;;;;;;;34.73;34.91;99687.34;5029504;28;20033;-47
2023/08/05 06:59:41;;;;;;;4.07;2.40;;;;;;;35.37;33.77;99698.31;5027914;28;20068;-49
2023/08/05 07:02:07;;;;;;;3.63;2.40;;;;;;;36.09;32.74;99698.00;5016347;28;20096;-48
2023/08/05 07:04:33;;;;;;;2.47;1.90;;;;;;;35.95;31.95;99688.31;5035458;28;20053;-47
2023/08/05 07:06:59;;;;;;;5.60;2.30;;;;;;;36.34;31.15;99698.09;5029523;28;20071;-45
2023/08/05 07:09:25;;;;;;;5.32;2.33;;;;;;;37.10;30.28;99694.41;5022869;28;20072;-52
2023/08/05 07:11:54;;;;;;;4.07;2.40;;;;;;;37.34;29.95;99705.19;5029491;28;20045;-46
2023/08/05 07:14:20;;;;;;;5.07;2.30;;;;;;;36.99;29.48;99709.47;5026406;28;20150;-46
2023/08/05 07:16:46;;;;;;;5.78;2.13;;;;;;;37.82;28.86;99695.44;5019460;28;20041;-44
2023/08/05 07:19:12;;;;;;;6.35;2.70;;;;;;;38.12;28.32;99708.00;5028723;28;20049;-46
2023/08/05 07:21:38;;;;;;;3.92;2.25;;;;;;;37.72;28.48;99704.97;5025685;28;20484;-47
2023/08/05 07:24:04;;;;;;;7.22;2.50;;;;;;;38.48;27.83;99700.81;5019836;28;20091;-47
2023/08/05 07:26:30;;;;;;;3.67;1.88;;;;;;;39.59;26.54;99697.16;5009961;28;20037;-52
2023/08/05 07:28:56;;;;;;;4.10;2.15;;;;;;;40.07;25.39;99673.09;5029920;28;20103;-50
2023/08/05 07:31:21;;;;;;;2.78;2.08;;;;;;;39.75;25.51;99708.13;5048771;28;20099;-48
2023/08/05 07:33:48;;;;;;;4.90;2.38;;;;;;;39.97;25.84;99700.16;5032663;28;20044;-45
2023/08/05 07:36:16;;;;;;;4.20;2.15;;;;;;;41.08;24.31;99684.91;5009015;28;20398;-47
2023/08/05 07:38:45;;;;;;;8.73;2.33;;;;;;;41.69;23.63;99704.84;5008740;28;20403;-47
2023/08/05 07:41:12;;;;;;;2.42;1.90;;;;;;;41.54;23.36;99721.03;5011187;28;20037;-49
2023/08/05 07:43:39;;;;;;;3.30;2.20;;;;;;;40.81;23.94;99671.13;5009553;28;20051;-52
2023/08/05 07:46:06;;;;;;;5.55;2.20;;;;;;;41.44;23.36;99714.34;5019334;28;20540;-49
2023/08/05 07:48:37;;;;;;;;;;;;;;;41.24;23.35;99703.16;5044666;28;20143;-46
2023/08/05 07:51:05;;;;;;;7.07;2.22;;;;;;;40.72;23.33;99672.63;5027757;28;19975;-50
2023/08/05 07:53:31;;;;;;;3.22;2.00;;;;;;;41.37;23.35;99702.78;5007011;28;20133;-47
2023/08/05 07:55:58;;;;;;;2.38;1.73;;;;;;;42.18;22.29;99706.50;5017462;28;20140;-52
2023/08/05 07:58:25;;;;;;;3.45;2.38;;;;;;;41.78;22.88;99717.78;5028964;28;20041;-52
2023/08/05 08:00:57;;;;;;;5.00;2.30;;;;;;;41.33;22.84;99714.44;5028877;28;20053;-50
2023/08/05 08:03:26;;;;;;;2.85;1.98;;;;;;;41.46;22.62;99699.66;5026530;28;20038;-50
2023/08/05 08:05:53;;;;;;;3.05;2.10;;;;;;;41.77;22.53;99697.00;5028830;28;20045;-47
2023/08/05 08:08:19;;;;;;;2.95;2.15;;;;;;;41.30;22.86;99701.28;5014644;28;20034;-50
2023/08/05 08:10:46;;;;;;;2.67;2.20;;;;;;;40.68;23.43;99686.97;5019934;28;20042;-46
2023/08/05 08:13:12;;;;;;;2.65;2.10;;;;;;;40.66;23.90;99670.88;5031579;28;20402;-47
2023/08/05 08:15:38;;;;;;;2.17;1.98;;;;;;;41.10;23.00;99699.13;5030984;28;20049;-47
2023/08/05 08:18:04;;;;;;;3.42;2.30;;;;;;;41.03;22.86;99704.75;5027804;28;20038;-50
2023/08/05 08:20:30;;;;;;;5.05;2.40;;;;;;;41.02;22.66;99699.53;5020992;28;20041;-49
2023/08/05 08:22:55;;;;;;;3.33;2.15;;;;;;;41.18;23.14;99701.44;5020631;28;20567;-50
2023/08/05 08:25:21;;;;;;;3.33;2.05;;;;;;;41.15;22.43;99701.09;5028890;28;20037;-49
2023/08/05 08:27:47;;;;;;;2.67;2.20;;;;;;;41.47;23.01;99704.84;5020366;28;20344;-53
2023/08/05 08:30:13;;;;;;;2.55;2.30;;;;;;;42.63;21.62;99706.13;5027638;28;20048;-46
2023/08/05 08:32:39;;;;;;;4.35;2.10;;;;;;;42.17;21.78;99695.81;5013716;28;20099;-48
2023/08/05 08:35:05;;;;;;;3.35;2.00;;;;;;;40.89;22.87;99694.41;5011380;28;20074;-47
2023/08/05 08:37:31;;;;;;;4.07;2.20;;;;;;;39.57;24.46;99699.31;5012895;28;20137;-47
2023/08/05 08:39:57;;;;;;;3.35;2.05;;;;;;;40.36;23.50;99695.69;5038606;28;20038;-47
2023/08/05 08:42:25;;;;;;;5.13;2.35;;;;;;;41.36;23.21;99701.13;5038618;28;20048;-48
2023/08/05 08:44:53;;;;;;;6.22;1.80;;;;;;;41.36;22.76;99692.91;5034451;28;20042;-47
2023/08/05 08:47:19;;;;;;;;;;;;;;;40.20;24.00;99697.31;5046282;28;20033;-49
2023/08/05 08:49:51;;;;;;;8.37;2.70;;;;;;;41.98;22.15;99700.81;5039186;28;20043;-46
2023/08/05 08:52:20;;;;;;;5.80;3.05;;;;;;;42.58;21.40;99710.72;5031227;28;20065;-47
2023/08/05 08:54:48;;;;;;;5.90;2.40;;;;;;;42.38;21.59;99696.88;5033292;28;20738;-48
2023/08/05 08:57:15;;;;;;;5.93;2.60;;;;;;;41.14;22.32;99696.72;5027800;28;20112;-50
2023/08/05 08:59:42;;;;;;;4.93;2.30;;;;;;;39.07;24.50;99680.78;5013269;28;20505;-51
2023/08/05 09:02:11;;;;;;;3.88;2.00;;;;;;;37.07;27.08;99681.22;5015633;28;20052;-49
2023/08/05 09:04:42;;;;;;;4.68;1.75;;;;;;;35.49;28.92;99688.47;5012270;28;20556;-48
2023/08/05 09:07:09;;;;;;;3.58;2.30;;;;;;;35.95;28.59;99679.38;5051096;28;20789;-49
2023/08/05 09:09:35;;;;;;;5.78;2.22;;;;;;;36.70;27.66;99688.47;5015530;28;20528;-46
2023/08/05 09:12:02;;;;;;;4.60;1.98;;;;;;;38.37;25.76;99704.28;5021917;28;20042;-48
2023/08/05 09:14:28;;;;;;;3.15;2.10;;;;;;;38.57;25.06;99688.56;5018655;28;20042;-51
2023/08/05 09:16:59;;;;;;;4.55;2.20;;;;;;;40.46;23.86;99705.97;5034178;28;20072;-50
2023/08/05 09:19:28;;;;;;;2.60;1.83;;;;;;;39.88;24.28;99708.94;5024853;28;20049;-49
2023/08/05 09:21:55;;;;;;;2.88;2.15;;;;;;;38.91;24.71;99682.31;5016554;28;20040;-46
2023/08/05 09:24:22;;;;;;;5.85;2.50;;;;;;;39.90;23.91;99710.34;5029340;28;20041;-47
2023/08/05 09:26:54;;;;;;;3.85;2.42;;;;;;;40.97;23.06;99708.47;5024253;28;20045;-50
2023/08/05 09:29:21;;;;;;;2.97;2.10;;;;;;;42.44;21.96;99728.66;5026221;28;20159;-48
2023/08/05 09:32:13;;;;;;;3.47;2.40;;;;;;;42.29;21.80;99723.88;5023178;28;20041;-51
2023/08/05 09:34:41;;;;;;;4.47;2.50;;;;;;;42.50;21.16;99714.72;5022848;28;20061;-45
2023/08/05 09:37:07;;;;;;;4.03;2.28;;;;;;;43.80;20.24;99713.16;5014948;28;20042;-41
2023/08/05 09:39:47;;;;;;;2.75;2.28;;;;;;;45.29;18.99;99716.53;5022682;28;20044;-43
2023/08/05 09:42:27;;;;;;;4.53;2.70;;;;;;;45.51;18.71;99721.72;5030758;28;20049;-40
2023/08/05 09:44:57;;;;;;;3.17;2.85;;;;;;;45.33;18.74;99719.56;5064702;28;20065;-40
2023/08/05 09:47:29;;;;;;;2.75;2.55;;;;;;;44.50;19.12;99714.41;5040698;28;20037;-44
2023/08/05 09:49:56;;;;;;;3.25;2.47;;;;;;;44.29;19.05;99718.22;5030967;28;20449;-40
2023/08/05 09:52:23;;;;;;;2.90;2.63;;;;;;;44.29;18.85;99715.50;5013589;28;20410;-44
2023/08/05 09:55:03;;;;;;;4.95;2.92;;;;;;;44.57;18.83;99714.13;5022888;28;20056;-55
2023/08/05 09:57:31;;;;;;;2.80;2.55;;;;;;;44.82;18.48;99722.38;5010654;28;20042;-40
2023/08/05 09:59:58;;;;;;;2.50;2.30;;;;;;;44.79;18.63;99716.63;5007024;28;20048;-40
2023/08/05 10:02:25;;;;;;;4.10;2.70;;;;;;;44.77;18.52;99716.91;5011286;28;20041;-40
2023/08/05 10:04:53;;;;;;;3.20;2.30;;;;;;;42.88;19.74;99721.09;5032073;28;20530;-42
2023/08/05 10:07:23;;;;;;;4.32;2.00;;;;;;;41.51;21.49;99708.69;5024154;28;20041;-43
2023/08/05 10:09:50;;;;;;;4.28;2.00;;;;;;;42.17;21.28;99707.59;5020148;28;20036;-43
2023/08/05 10:12:21;;;;;;;3.20;2.38;;;;;;;43.67;20.12;99704.59;5004230;28;20041;-42
2023/08/05 10:14:51;;;;;;;4.82;2.67;;;;;;;44.97;18.81;99710.56;5017971;28;20118;-59
2023/08/05 10:17:18;;;;;;;2.67;2.42;;;;;;;45.73;18.56;99715.84;5028053;28;20429;-44
2023/08/05 10:19:49;;;;;;;;;;;;;;;46.92;17.52;99713.69;5028506;28;20688;-52
2023/08/05 10:22:21;;;;;;;3.80;2.53;;;;;;;46.42;17.19;99709.41;5027705;28;19943;-57
2023/08/05 10:24:56;;;;;;;3.13;2.60;;;;;;;45.63;17.16;99694.75;5027940;28;20513;-65
2023/08/05 10:27:46;;;;;;;3.75;2.75;;;;;;;45.11;17.98;99700.69;5017390;28;20045;-64
2023/08/05 10:30:15;;;;;;;2.50;2.30;;;;;;;45.11;17.66;99687.78;5015058;28;20088;-65
2023/08/05 10:32:54;;;;;;;2.85;2.40;;;;;;;44.67;18.11;99687.56;5023836;28;20049;-57
2023/08/05 10:35:31;;;;;;;4.75;2.45;;;;;;;44.38;18.39;99682.88;5011414;28;20082;-67
2023/08/05 10:38:07;;;;;;;2.50;2.20;;;;;;;45.49;18.01;99690.94;5017569;28;20069;-60
2023/08/05 10:40:40;;;;;;;3.05;2.53;;;;;;;44.27;18.44;99688.38;5011643;28;20128;-72
2023/08/05 10:43:07;;;;;;;5.15;2.47;;;;;;;44.33;18.79;99680.13;5011074;28;20088;-69
2023/08/05 10:45:33;;;;;;;4.63;2.10;;;;;;;43.44;19.32;99682.03;5023363;28;20048;-69
2023/08/05 10:47:59;;;;;;;2.37;1.90;;;;;;;42.00;20.58;99673.25;5032949;28;20042;-71
2023/08/05 10:50:37;;;;;;;2.10;1.77;;;;;;;41.48;20.99;99681.91;5028176;28;20343;-69
2023/08/05 10:53:10;;;;;;;4.38;2.30;;;;;;;40.75;21.88;99672.13;5026293;28;20066;-69
2023/08/05 10:55:48;;;;;;;3.00;2.20;;;;;;;41.60;20.96;99668.13;5014776;28;20088;-69
2023/08/05 10:58:16;;;;;;;3.15;2.25;;;;;;;42.55;20.82;99673.78;5029118;28;20131;-67
2023/08/05 11:00:42;;;;;;;3.35;2.40;;;;;;;43.82;20.08;99672.59;5011618;28;20045;-56
2023/08/05 11:03:30;;;;;;;3.25;2.20;;;;;;;43.65;19.63;99674.75;5020145;28;20545;-56
2023/08/05 11:06:03;;;;;;;4.28;2.70;;;;;;;43.50;19.26;99667.28;5013513;28;20477;-57
2023/08/05 11:08:30;;;;;;;2.97;2.30;;;;;;;43.30;19.68;99680.03;4991748;28;20049;-57
2023/08/05 11:10:59;;;;;;;2.42;2.22;;;;;;;44.55;19.11;99677.91;5024039;28;20092;-57
2023/08/05 11:13:25;;;;;;;2.63;2.42;;;;;;;45.87;17.97;99661.94;5025511;28;20042;-59
2023/08/05 11:16:06;;;;;;;5.43;2.88;;;;;;;46.59;17.43;99687.81;5006979;28;20092;-58
2023/08/05 11:18:33;;;;;;;4.28;2.75;;;;;;;45.33;18.05;99681.13;5007821;28;20525;-58
2023/08/05 11:21:01;;;;;;;2.47;2.28;;;;;;;44.24;18.78;99674.31;5009782;28;20038;-54
2023/08/05 11:23:27;;;;;;;5.10;2.70;;;;;;;44.14;19.04;99669.66;5008591;28;20033;-57
2023/08/05 11:25:53;;;;;;;2.83;2.60;;;;;;;44.75;18.80;99680.69;5023605;28;20060;-55
2023/08/05 11:28:20;;;;;;;3.70;2.80;;;;;;;44.98;18.66;99662.78;5023231;28;20476;-56
2023/08/05 11:30:46;;;;;;;3.75;2.70;;;;;;;45.19;18.56;99678.13;5025778;28;20063;-56
2023/08/05 11:33:12;;;;;;;2.93;2.70;;;;;;;45.92;18.13;99670.97;5025886;28;20425;-56
2023/08/05 11:35:44;;;;;;;4.40;2.60;;;;;;;45.65;17.92;99677.97;5024916;28;20053;-56